createdAt,value
2022-10-04T00:01:55.206Z,2.22
2022-10-04T00:04:27.241Z,2.10
2022-10-04T00:07:00.395Z,2.08
2022-10-04T00:09:33.614Z,2.00
2022-10-04T00:12:04.803Z,2.33
2022-10-04T00:14:37.183Z,2.08
2022-10-04T00:17:11.725Z,2.08
2022-10-04T00:19:47.169Z,2.25
2022-10-04T00:22:18.604Z,2.08
2022-10-04T00:25:23.026Z,1.73
2022-10-04T00:28:19.239Z,2.30
2022-10-04T00:31:12.258Z,2.22
2022-10-04T00:33:41.515Z,2.10
2022-10-04T00:36:46.596Z,2.17
2022-10-04T00:39:17.920Z,2.30
2022-10-04T00:41:56.259Z,2.63
2022-10-04T00:44:30.297Z,1.92
2022-10-04T00:47:02.206Z,2.33
2022-10-04T00:49:33.644Z,2.28
2022-10-04T00:52:04.761Z,2.40
2022-10-04T00:54:35.293Z,2.33
2022-10-04T00:57:07.558Z,2.80
2022-10-04T00:59:38.245Z,2.40
2022-10-04T01:02:09.537Z,2.35
2022-10-04T01:04:43.199Z,2.25
2022-10-04T01:07:14.231Z,2.45
2022-10-04T01:09:49.341Z,2.75
2022-10-04T01:12:26.125Z,2.38
2022-10-04T01:15:00.934Z,2.40
2022-10-04T01:17:30.730Z,2.20
2022-10-04T01:19:59.156Z,3.10
2022-10-04T01:22:42.632Z,2.50
2022-10-04T01:25:10.992Z,2.72
2022-10-04T01:27:43.486Z,3.08
2022-10-04T01:30:15.101Z,2.80
2022-10-04T01:32:45.351Z,2.75
2022-10-04T01:35:15.505Z,2.95
2022-10-04T01:37:45.256Z,3.17
2022-10-04T01:40:13.710Z,2.90
2022-10-04T01:42:45.005Z,3.10
2022-10-04T01:45:18.504Z,2.85
2022-10-04T01:47:51.387Z,2.80
2022-10-04T01:50:26.386Z,2.60
2022-10-04T01:53:01.463Z,2.60
2022-10-04T01:55:31.920Z,3.00
2022-10-04T01:58:04.440Z,2.30
2022-10-04T02:00:41.854Z,2.78
2022-10-04T02:03:13.730Z,3.45
2022-10-04T02:05:47.746Z,1.90
2022-10-04T02:08:18.602Z,3.03
2022-10-04T02:10:47.895Z,3.30
2022-10-04T02:13:19.369Z,3.67
2022-10-04T02:15:48.352Z,3.40
2022-10-04T02:18:20.767Z,3.40
2022-10-04T02:20:50.794Z,3.08
2022-10-04T02:23:21.770Z,3.08
2022-10-04T02:25:50.218Z,3.42
2022-10-04T02:28:19.520Z,3.42
2022-10-04T02:31:10.334Z,2.80
2022-10-04T02:33:42.317Z,3.60
2022-10-04T02:36:13.750Z,3.28
2022-10-04T02:38:47.174Z,3.47
2022-10-04T02:41:22.558Z,3.20
2022-10-04T02:43:54.306Z,3.70
2022-10-04T02:46:25.477Z,3.03
2022-10-04T02:48:55.101Z,3.38
2022-10-04T02:51:27.305Z,3.65
2022-10-04T02:54:06.714Z,3.95
2022-10-04T02:56:35.341Z,3.20
2022-10-04T02:59:04.965Z,3.92
2022-10-04T03:01:45.255Z,4.38
2022-10-04T03:04:15.168Z,4.10
2022-10-04T03:06:45.812Z,3.75
2022-10-04T03:09:16.039Z,4.03
2022-10-04T03:11:44.774Z,3.70
2022-10-04T03:14:15.345Z,3.20
2022-10-04T03:16:45.299Z,4.80
2022-10-04T03:19:15.262Z,3.88
2022-10-04T03:21:45.285Z,4.13
2022-10-04T03:24:18.315Z,4.22
2022-10-04T03:26:48.654Z,3.85
2022-10-04T03:29:18.291Z,3.92
2022-10-04T03:31:48.847Z,4.45
2022-10-04T03:34:18.510Z,4.47
2022-10-04T03:36:49.395Z,4.60
2022-10-04T03:39:27.454Z,4.28
2022-10-04T03:41:58.019Z,4.25
2022-10-04T03:48:38.491Z,3.50
2022-10-04T03:51:09.391Z,3.40
2022-10-04T03:53:43.292Z,4.13
2022-10-04T03:56:18.701Z,3.45
2022-10-04T03:58:48.211Z,4.30
2022-10-04T04:01:26.032Z,3.13
2022-10-04T04:04:03.743Z,4.50
2022-10-04T04:06:39.208Z,3.80
2022-10-04T04:09:08.010Z,4.55
2022-10-04T04:11:38.361Z,3.90
2022-10-04T04:14:09.651Z,4.05
2022-10-04T04:16:38.824Z,3.40
2022-10-04T04:19:14.043Z,4.20
2022-10-04T04:21:43.063Z,4.63
2022-10-04T04:24:23.915Z,3.83
2022-10-04T04:26:57.021Z,4.05
2022-10-04T04:29:27.604Z,3.97
2022-10-04T04:31:59.732Z,3.88
2022-10-04T04:34:30.318Z,4.10
2022-10-04T04:37:00.570Z,3.63
2022-10-04T04:39:38.278Z,3.88
2022-10-04T04:42:15.149Z,4.05
2022-10-04T04:44:48.804Z,2.85
2022-10-04T04:47:27.189Z,3.67
2022-10-04T04:49:57.077Z,2.80
2022-10-04T04:52:27.907Z,3.70
2022-10-04T04:54:56.901Z,3.45
2022-10-04T04:57:26.909Z,4.20
2022-10-04T04:59:58.417Z,3.50
2022-10-04T05:02:35.228Z,3.40
2022-10-04T05:05:18.264Z,3.38
2022-10-04T05:07:46.705Z,3.45
2022-10-04T05:10:23.665Z,3.78
2022-10-04T05:12:53.616Z,3.72
2022-10-04T05:15:22.662Z,3.40
2022-10-04T05:17:51.009Z,2.90
2022-10-04T05:20:19.907Z,3.58
2022-10-04T05:22:49.428Z,3.45
2022-10-04T05:25:26.291Z,2.60
2022-10-04T05:27:56.985Z,2.97
2022-10-04T05:30:36.868Z,3.30
2022-10-04T05:33:07.783Z,3.10
2022-10-04T05:35:44.514Z,3.17
2022-10-04T05:38:17.342Z,2.60
2022-10-04T05:40:50.385Z,3.65
2022-10-04T05:43:26.933Z,3.28
2022-10-04T05:46:28.591Z,3.40
2022-10-04T05:48:58.397Z,4.57
2022-10-04T05:51:29.657Z,3.30
2022-10-04T05:53:59.477Z,3.72
2022-10-04T05:56:57.485Z,3.40
2022-10-04T05:59:41.838Z,4.15
2022-10-04T06:02:21.101Z,3.97
2022-10-04T06:05:02.775Z,3.47
2022-10-04T06:07:36.467Z,3.20
2022-10-04T06:10:24.574Z,3.50
2022-10-04T06:12:56.982Z,4.15
2022-10-04T06:15:41.520Z,3.83
2022-10-04T06:18:22.977Z,3.58
2022-10-04T06:21:12.457Z,3.78
2022-10-04T06:23:46.573Z,3.35
2022-10-04T06:26:21.246Z,3.22
2022-10-04T06:31:35.903Z,3.50
2022-10-04T06:34:25.254Z,3.70
2022-10-04T06:37:06.928Z,3.53
2022-10-04T06:40:17.223Z,3.20
2022-10-04T06:43:00.655Z,3.50
2022-10-04T06:45:41.733Z,3.33
2022-10-04T06:49:01.735Z,2.88
2022-10-04T06:51:41.907Z,3.08
2022-10-04T06:54:24.355Z,3.05
2022-10-04T06:57:10.211Z,3.22
2022-10-04T06:59:59.055Z,3.50
2022-10-04T07:02:32.178Z,3.55
2022-10-04T07:05:09.386Z,3.72
2022-10-04T07:07:40.191Z,3.35
2022-10-04T07:10:23.397Z,2.97
2022-10-04T07:13:01.170Z,2.78
2022-10-04T07:15:32.013Z,2.90
2022-10-04T07:18:06.541Z,3.10
2022-10-04T07:20:39.228Z,3.38
2022-10-04T07:23:14.417Z,3.40
2022-10-04T07:25:46.839Z,3.42
2022-10-04T07:28:40.488Z,2.85
2022-10-04T07:31:14.267Z,2.75
2022-10-04T07:33:46.257Z,3.25
2022-10-04T07:36:21.860Z,2.90
2022-10-04T07:38:53.346Z,2.42
2022-10-04T07:41:24.512Z,2.70
2022-10-04T07:43:56.252Z,3.50
2022-10-04T07:46:41.172Z,3.28
2022-10-04T07:52:02.515Z,2.85
2022-10-04T07:54:38.726Z,2.60
2022-10-04T07:57:13.254Z,2.85
2022-10-04T08:02:19.953Z,3.08
2022-10-04T08:04:55.988Z,2.70
2022-10-04T08:07:28.322Z,3.08
2022-10-04T08:10:02.930Z,3.55
2022-10-04T08:12:41.989Z,3.20
2022-10-04T08:15:37.972Z,2.65
2022-10-04T08:18:31.281Z,2.60
2022-10-04T08:21:01.150Z,2.55
2022-10-04T08:23:56.018Z,2.40
2022-10-04T08:26:36.662Z,2.15
2022-10-04T08:29:42.646Z,2.22
2022-10-04T08:32:31.906Z,2.55
2022-10-04T08:35:26.312Z,1.90
2022-10-04T08:38:06.491Z,2.70
2022-10-04T08:40:58.087Z,1.90
2022-10-04T08:43:50.659Z,1.90
2022-10-04T08:46:33.157Z,2.10
2022-10-04T08:49:17.726Z,1.83
2022-10-04T08:52:09.100Z,2.25
2022-10-04T08:55:20.985Z,2.25
2022-10-04T08:58:06.428Z,2.00
2022-10-04T09:00:45.735Z,1.83
2022-10-04T09:03:47.460Z,1.75
2022-10-04T09:06:39.063Z,2.20
2022-10-04T09:09:44.735Z,1.88
2022-10-04T09:12:37.382Z,2.08
2022-10-04T09:15:27.792Z,2.20
2022-10-04T09:18:03.517Z,1.70
2022-10-04T09:20:46.612Z,1.83
2022-10-04T09:23:37.504Z,2.15
2022-10-04T09:26:19.851Z,2.38
2022-10-04T09:29:10.099Z,2.08
2022-10-04T09:32:29.273Z,2.10
2022-10-04T09:35:38.018Z,1.85
2022-10-04T09:39:43.472Z,1.88
2022-10-04T09:42:43.064Z,2.20
2022-10-04T09:45:27.630Z,2.08
2022-10-04T09:48:07.917Z,1.95
2022-10-04T09:51:08.119Z,2.03
2022-10-04T09:53:46.533Z,2.10
2022-10-04T09:56:26.997Z,2.10
2022-10-04T09:59:22.203Z,1.92
2022-10-04T10:04:42.376Z,1.42
2022-10-04T10:07:33.108Z,2.08
2022-10-04T10:10:29.643Z,2.70
2022-10-04T10:13:39.682Z,2.28
2022-10-04T10:16:20.184Z,2.15
2022-10-04T10:18:59.464Z,2.25
2022-10-04T10:21:37.675Z,2.00
2022-10-04T10:24:20.239Z,2.00
2022-10-04T10:26:56.582Z,2.08
2022-10-04T10:29:54.801Z,2.60
2022-10-04T10:32:49.404Z,2.50
2022-10-04T10:35:53.062Z,2.60
2022-10-04T10:38:40.412Z,1.25
2022-10-04T10:41:30.359Z,1.20
2022-10-04T10:44:10.385Z,0.90
2022-10-04T10:46:51.471Z,0.90
2022-10-04T10:49:28.315Z,0.98
2022-10-04T10:52:39.845Z,1.02
2022-10-04T10:55:30.372Z,0.70
2022-10-04T10:58:22.829Z,0.60
2022-10-04T11:00:54.698Z,0.80
2022-10-04T11:03:36.202Z,0.65
2022-10-04T11:06:17.985Z,0.65
2022-10-04T11:09:22.065Z,0.68
2022-10-04T11:12:40.125Z,0.57
2022-10-04T11:15:34.402Z,0.77
2022-10-04T11:18:36.422Z,0.60
2022-10-04T11:21:40.202Z,0.55
2022-10-04T11:24:31.856Z,0.52
2022-10-04T11:27:06.675Z,0.57
2022-10-04T11:29:56.125Z,0.70
2022-10-04T11:32:49.585Z,0.50
2022-10-04T11:35:51.236Z,0.82
2022-10-04T11:38:31.195Z,0.65
2022-10-04T11:41:13.947Z,0.70
2022-10-04T11:44:07.470Z,0.80
2022-10-04T11:46:40.239Z,0.98
2022-10-04T11:49:23.587Z,0.80
2022-10-04T11:55:37.448Z,0.90
2022-10-04T11:58:12.191Z,1.20
2022-10-04T12:00:54.948Z,1.10
2022-10-04T12:03:45.576Z,1.00
2022-10-04T12:06:24.924Z,1.15
2022-10-04T12:09:05.518Z,0.98
2022-10-04T12:12:38.907Z,0.70
2022-10-04T12:15:24.593Z,1.27
2022-10-04T12:18:37.391Z,0.90
2022-10-04T12:21:34.972Z,0.80
2022-10-04T12:24:39.294Z,1.10
2022-10-04T12:27:39.208Z,1.10
2022-10-04T12:30:24.047Z,1.52
2022-10-04T12:33:05.946Z,1.20
2022-10-04T12:35:49.158Z,1.48
2022-10-04T12:38:32.807Z,1.20
2022-10-04T12:41:05.145Z,1.55
2022-10-04T12:43:38.773Z,1.52
2022-10-04T12:46:17.359Z,1.30
2022-10-04T12:48:58.137Z,1.10
2022-10-04T12:59:02.301Z,0.80
2022-10-04T13:01:37.827Z,0.70
2022-10-04T13:04:14.747Z,0.70
2022-10-04T13:06:55.487Z,0.90
2022-10-04T13:09:32.370Z,1.00
2022-10-04T13:12:14.621Z,0.90
2022-10-04T13:15:14.697Z,1.60
2022-10-04T13:17:50.229Z,1.08
2022-10-04T13:20:33.365Z,1.10
2022-10-04T13:23:09.008Z,0.95
2022-10-04T13:26:03.751Z,0.75
2022-10-04T13:28:37.991Z,1.00
2022-10-04T13:31:12.868Z,0.90
2022-10-04T13:33:49.441Z,1.10
2022-10-04T13:36:21.656Z,1.00
2022-10-04T13:39:22.058Z,1.00
2022-10-04T13:42:19.392Z,1.25
2022-10-04T13:45:07.439Z,0.90
2022-10-04T13:47:49.892Z,0.98
2022-10-04T13:50:32.711Z,0.82
2022-10-04T13:53:25.327Z,0.88
2022-10-04T13:56:22.300Z,1.05
2022-10-04T13:58:55.859Z,1.20
2022-10-04T14:02:01.912Z,1.30
2022-10-04T14:04:54.618Z,1.20
2022-10-04T14:07:50.554Z,1.00
2022-10-04T14:10:36.516Z,0.85
2022-10-04T14:13:45.343Z,0.80
2022-10-04T14:16:43.154Z,1.10
2022-10-04T14:19:43.315Z,1.08
2022-10-04T14:22:51.208Z,1.10
2022-10-04T14:25:41.585Z,1.00
2022-10-04T14:28:40.849Z,0.85
2022-10-04T14:31:22.203Z,1.20
2022-10-04T14:34:17.089Z,1.20
2022-10-04T14:37:01.153Z,1.00
2022-10-04T14:39:55.507Z,1.02
2022-10-04T14:42:37.681Z,0.75
2022-10-04T14:45:21.310Z,1.10
2022-10-04T14:48:12.470Z,1.20
2022-10-04T14:50:51.525Z,1.10
2022-10-04T14:53:27.750Z,1.20
2022-10-04T14:56:27.262Z,1.35
2022-10-04T14:59:05.019Z,1.50
2022-10-04T15:01:33.634Z,1.50
2022-10-04T15:04:13.025Z,1.35
2022-10-04T15:06:48.750Z,1.40
2022-10-04T15:09:56.534Z,1.10
2022-10-04T15:13:09.965Z,1.20
2022-10-04T15:15:55.622Z,1.00
2022-10-04T15:18:31.827Z,0.88
2022-10-04T15:21:02.768Z,1.30
2022-10-04T15:23:37.978Z,1.10
2022-10-04T15:26:39.213Z,1.38
2022-10-04T15:29:16.291Z,1.30
2022-10-04T15:31:54.474Z,0.90
2022-10-04T15:34:33.542Z,1.40
2022-10-04T15:37:09.958Z,1.00
2022-10-04T15:40:15.965Z,1.08
2022-10-04T15:42:59.945Z,1.33
2022-10-04T15:45:49.124Z,1.58
2022-10-04T15:48:33.154Z,1.38
2022-10-04T15:51:07.566Z,1.30
2022-10-04T15:54:11.801Z,1.02
2022-10-04T15:56:49.600Z,1.13
2022-10-04T15:59:36.375Z,1.50
2022-10-04T16:02:36.020Z,1.02
2022-10-04T16:05:19.518Z,0.90
2022-10-04T16:08:06.537Z,0.98
2022-10-04T16:10:58.745Z,1.25
2022-10-04T16:13:50.013Z,1.60
2022-10-04T16:16:32.781Z,1.27
2022-10-04T16:19:11.814Z,1.42
2022-10-04T16:21:51.938Z,1.45
2022-10-04T16:24:58.920Z,1.20
2022-10-04T16:27:59.447Z,1.38
2022-10-04T16:30:30.186Z,1.45
2022-10-04T16:33:23.146Z,1.10
2022-10-04T16:36:05.359Z,1.20
2022-10-04T16:38:36.593Z,1.30
2022-10-04T16:41:11.738Z,1.58
2022-10-04T16:43:50.138Z,1.75
2022-10-04T16:46:28.069Z,1.83
2022-10-04T16:48:58.900Z,1.88
2022-10-04T16:51:57.420Z,1.63
2022-10-04T16:55:02.947Z,1.63
2022-10-04T16:57:31.989Z,1.88
2022-10-04T17:00:05.922Z,1.75
2022-10-04T17:02:55.635Z,2.00
2022-10-04T17:06:00.569Z,1.60
2022-10-04T17:08:48.325Z,1.27
2022-10-04T17:11:30.610Z,1.60
2022-10-04T17:14:02.498Z,1.85
2022-10-04T17:16:38.031Z,1.80
2022-10-04T17:19:30.192Z,2.00
2022-10-04T17:22:07.508Z,1.80
2022-10-04T17:24:47.227Z,1.70
2022-10-04T17:27:26.247Z,1.70
2022-10-04T17:30:12.653Z,1.65
2022-10-04T17:32:50.193Z,1.23
2022-10-04T17:35:41.412Z,1.20
2022-10-04T17:38:11.777Z,1.42
2022-10-04T17:40:49.005Z,1.20
2022-10-04T17:43:23.831Z,1.23
2022-10-04T17:45:59.392Z,1.10
2022-10-04T17:48:47.073Z,1.20
2022-10-04T17:51:51.052Z,1.48
2022-10-04T17:54:40.421Z,1.45
2022-10-04T17:57:27.364Z,1.77
2022-10-04T18:00:09.544Z,1.65
2022-10-04T18:02:59.879Z,1.40
2022-10-04T18:05:31.004Z,1.40
2022-10-04T18:08:03.195Z,1.30
2022-10-04T18:10:35.150Z,1.20
2022-10-04T18:13:07.860Z,1.40
2022-10-04T18:15:40.017Z,1.40
2022-10-04T18:18:16.387Z,1.60
2022-10-04T18:21:07.552Z,1.45
2022-10-04T18:23:39.534Z,1.30
2022-10-04T18:26:17.644Z,1.38
2022-10-04T18:28:48.886Z,1.80
2022-10-04T18:31:33.433Z,1.60
2022-10-04T18:34:08.840Z,1.50
2022-10-04T18:36:51.932Z,1.40
2022-10-04T18:39:22.017Z,1.38
2022-10-04T18:42:01.334Z,1.30
2022-10-04T18:44:44.506Z,1.30
2022-10-04T18:47:21.324Z,1.40
2022-10-04T18:49:52.336Z,1.40
2022-10-04T18:52:30.236Z,1.27
2022-10-04T18:55:06.996Z,1.55
2022-10-04T18:57:59.429Z,1.30
2022-10-04T19:00:51.187Z,1.35
2022-10-04T19:03:25.465Z,1.48
2022-10-04T19:05:59.744Z,1.52
2022-10-04T19:08:37.677Z,1.20
2022-10-04T19:11:09.508Z,1.23
2022-10-04T19:13:43.368Z,1.25
2022-10-04T19:16:17.497Z,1.10
2022-10-04T19:18:57.959Z,1.10
2022-10-04T19:21:32.269Z,1.42
2022-10-04T19:24:27.077Z,1.50
2022-10-04T19:27:00.829Z,1.40
2022-10-04T19:29:41.681Z,1.30
2022-10-04T19:32:15.700Z,1.55
2022-10-04T19:34:53.999Z,1.65
2022-10-04T19:37:25.229Z,1.65
2022-10-04T19:39:59.751Z,1.40
2022-10-04T19:42:34.251Z,2.13
2022-10-04T19:45:12.765Z,1.50
2022-10-04T19:47:46.434Z,1.38
2022-10-04T19:50:23.944Z,1.88
2022-10-04T19:52:54.746Z,1.70
2022-10-04T19:55:27.663Z,1.52
2022-10-04T19:58:03.624Z,1.73
2022-10-04T20:00:33.210Z,1.50
2022-10-04T20:03:03.215Z,1.60
2022-10-04T20:05:31.645Z,1.58
2022-10-04T20:08:05.234Z,1.50
2022-10-04T20:10:35.790Z,1.40
2022-10-04T20:13:21.314Z,1.50
2022-10-04T20:15:55.918Z,1.17
2022-10-04T20:19:00.832Z,1.58
2022-10-04T20:21:33.013Z,1.40
2022-10-04T20:24:01.823Z,1.27
2022-10-04T20:26:54.737Z,1.75
2022-10-04T20:30:04.464Z,1.80
2022-10-04T20:32:56.193Z,1.98
2022-10-04T20:36:08.616Z,2.20
2022-10-04T20:38:53.485Z,2.05
2022-10-04T20:42:04.804Z,1.75
2022-10-04T20:44:54.586Z,2.22
2022-10-04T20:47:50.127Z,1.50
2022-10-04T20:50:32.865Z,1.55
2022-10-04T20:53:04.105Z,1.15
2022-10-04T20:55:35.828Z,1.50
2022-10-04T20:58:20.064Z,1.50
2022-10-04T21:00:52.819Z,1.37
2022-10-04T21:03:21.823Z,1.55
2022-10-04T21:06:05.237Z,1.50
2022-10-04T21:08:34.337Z,1.52
2022-10-04T21:11:08.696Z,1.50
2022-10-04T21:13:45.321Z,1.45
2022-10-04T21:16:34.232Z,1.77
2022-10-04T21:19:50.558Z,1.48
2022-10-04T21:22:38.771Z,1.52
2022-10-04T21:25:32.268Z,1.65
2022-10-04T21:28:45.304Z,1.08
2022-10-04T21:31:15.093Z,1.30
2022-10-04T21:33:43.493Z,1.10
2022-10-04T21:36:11.872Z,1.60
2022-10-04T21:38:40.306Z,1.40
2022-10-04T21:41:08.743Z,1.70
2022-10-04T21:43:37.413Z,1.60
2022-10-04T21:46:06.001Z,1.50
2022-10-04T21:48:35.784Z,1.80
2022-10-04T21:51:04.157Z,1.65
2022-10-04T21:53:32.509Z,1.90
2022-10-04T21:56:00.796Z,1.95
2022-10-04T21:58:29.266Z,1.90
2022-10-04T22:00:57.646Z,1.80
2022-10-04T22:03:26.050Z,1.77
2022-10-04T22:05:55.791Z,1.48
2022-10-04T22:08:24.188Z,1.65
2022-10-04T22:10:57.463Z,1.48
2022-10-04T22:13:26.929Z,1.42
2022-10-04T22:15:55.412Z,1.27
2022-10-04T22:18:23.894Z,1.50
2022-10-04T22:20:52.226Z,1.80
2022-10-04T22:23:24.022Z,1.27
2022-10-04T22:25:52.672Z,1.60
2022-10-04T22:28:23.639Z,1.20
2022-10-04T22:30:53.329Z,1.20
2022-10-04T22:33:29.874Z,1.50
2022-10-04T22:35:59.704Z,1.40
2022-10-04T22:38:29.562Z,1.70
2022-10-04T22:40:58.488Z,1.63
2022-10-04T22:43:26.865Z,1.52
2022-10-04T22:45:56.024Z,1.80
2022-10-04T22:48:26.712Z,1.80
2022-10-04T22:50:55.049Z,1.85
2022-10-04T22:53:24.280Z,1.80
2022-10-04T22:55:56.000Z,1.90
2022-10-04T22:58:24.338Z,1.65
2022-10-04T23:00:52.675Z,1.83
2022-10-04T23:03:28.274Z,1.92
2022-10-04T23:05:56.657Z,1.52
2022-10-04T23:08:25.012Z,1.50
2022-10-04T23:10:56.692Z,1.70
2022-10-04T23:13:25.685Z,1.90
2022-10-04T23:15:54.447Z,2.20
2022-10-04T23:18:23.025Z,2.15
2022-10-04T23:20:56.081Z,1.90
2022-10-04T23:23:24.434Z,2.25
2022-10-04T23:25:52.784Z,1.90
2022-10-04T23:28:22.996Z,2.25
2022-10-04T23:31:01.880Z,1.90
2022-10-04T23:33:30.214Z,2.10
2022-10-04T23:35:58.536Z,1.98
2022-10-04T23:38:26.860Z,2.00
2022-10-04T23:40:55.386Z,1.98
2022-10-04T23:43:26.940Z,2.28
2022-10-04T23:45:57.145Z,2.00
2022-10-04T23:48:27.852Z,1.90
2022-10-04T23:50:57.607Z,1.90
2022-10-04T23:53:28.306Z,1.90
2022-10-04T23:55:57.018Z,2.00
2022-10-04T23:58:30.893Z,2.20
